createdAt,value
2019-05-29T00:01:23.929Z,9.10
2019-05-29T00:03:52.473Z,9.10
2019-05-29T00:06:23.744Z,9.00
2019-05-29T00:08:54.248Z,9.00
2019-05-29T00:11:25.609Z,9.00
2019-05-29T00:13:56.664Z,8.90
2019-05-29T00:16:27.580Z,8.90
2019-05-29T00:18:58.316Z,8.90
2019-05-29T00:21:26.287Z,8.90
2019-05-29T00:23:54.810Z,8.90
2019-05-29T00:26:23.437Z,8.80
2019-05-29T00:28:51.976Z,8.80
2019-05-29T00:31:20.535Z,8.80
2019-05-29T00:33:49.144Z,8.80
2019-05-29T00:36:17.674Z,8.80
2019-05-29T00:38:46.307Z,8.80
2019-05-29T00:41:15.127Z,8.80
2019-05-29T00:43:43.731Z,8.80
2019-05-29T00:46:13.248Z,8.80
2019-05-29T00:48:41.982Z,8.80
2019-05-29T00:51:10.969Z,8.90
2019-05-29T00:53:39.700Z,8.90
2019-05-29T00:56:08.559Z,8.90
2019-05-29T00:58:37.167Z,8.90
2019-05-29T01:01:05.771Z,8.90
2019-05-29T01:03:34.376Z,8.90
2019-05-29T01:06:02.998Z,9.00
2019-05-29T01:08:31.536Z,8.90
2019-05-29T01:11:00.083Z,8.90
2019-05-29T01:13:28.631Z,9.00
2019-05-29T01:15:57.193Z,9.10
2019-05-29T01:18:25.800Z,9.20
2019-05-29T01:20:54.430Z,9.30
2019-05-29T01:23:22.956Z,9.30
2019-05-29T01:25:51.556Z,9.30
2019-05-29T01:28:21.018Z,9.30
2019-05-29T01:30:51.606Z,9.30
2019-05-29T01:33:23.111Z,9.20
2019-05-29T01:35:50.489Z,9.20
2019-05-29T01:38:19.329Z,9.20
2019-05-29T01:40:47.881Z,9.10
2019-05-29T01:43:17.491Z,9.10
2019-05-29T01:45:46.092Z,9.10
2019-05-29T01:48:15.399Z,9.10
2019-05-29T01:50:43.999Z,9.20
2019-05-29T01:53:12.532Z,9.10
2019-05-29T01:55:41.527Z,9.20
2019-05-29T01:58:10.155Z,9.20
2019-05-29T02:00:38.799Z,9.20
2019-05-29T02:03:07.404Z,9.20
2019-05-29T02:05:36.028Z,9.10
2019-05-29T02:08:04.627Z,9.20
2019-05-29T02:10:33.189Z,9.10
2019-05-29T02:13:01.723Z,9.10
2019-05-29T02:15:33.647Z,9.10
2019-05-29T02:18:00.546Z,9.10
2019-05-29T02:20:29.206Z,9.20
2019-05-29T02:22:57.768Z,9.20
2019-05-29T02:25:26.460Z,9.20
2019-05-29T02:27:55.000Z,9.20
2019-05-29T02:30:27.821Z,9.20
2019-05-29T02:32:53.881Z,9.20
2019-05-29T02:35:24.449Z,9.20
2019-05-29T02:37:52.701Z,9.20
2019-05-29T02:40:25.139Z,9.10
2019-05-29T02:42:53.072Z,9.10
2019-05-29T02:45:23.789Z,9.10
2019-05-29T02:47:51.936Z,9.10
2019-05-29T02:50:22.197Z,9.00
2019-05-29T02:52:50.864Z,9.10
2019-05-29T02:55:20.659Z,9.00
2019-05-29T02:57:49.544Z,9.10
2019-05-29T03:00:20.965Z,9.00
2019-05-29T03:02:49.668Z,9.10
2019-05-29T03:05:18.309Z,9.10
2019-05-29T03:07:46.981Z,9.10
2019-05-29T03:10:15.859Z,9.20
2019-05-29T03:12:45.256Z,9.20
2019-05-29T03:15:13.930Z,9.10
2019-05-29T03:17:42.484Z,9.10
2019-05-29T03:20:11.176Z,9.20
2019-05-29T03:22:39.730Z,9.20
2019-05-29T03:25:08.409Z,9.10
2019-05-29T03:27:38.425Z,9.20
2019-05-29T03:30:08.230Z,9.10
2019-05-29T03:32:45.035Z,9.10
2019-05-29T03:35:07.551Z,9.10
2019-05-29T03:37:36.068Z,9.10
2019-05-29T03:40:06.650Z,9.00
2019-05-29T03:42:35.174Z,8.90
2019-05-29T03:45:04.760Z,8.80
2019-05-29T03:47:34.952Z,8.70
2019-05-29T03:50:05.233Z,8.60
2019-05-29T03:52:34.711Z,8.60
2019-05-29T03:55:05.566Z,8.60
2019-05-29T03:57:35.761Z,8.60
2019-05-29T04:00:06.964Z,8.60
2019-05-29T04:02:37.888Z,8.60
2019-05-29T04:05:06.807Z,8.60
2019-05-29T04:07:37.392Z,8.70
2019-05-29T04:10:11.489Z,8.70
2019-05-29T04:12:40.594Z,8.80
2019-05-29T04:15:09.419Z,8.80
2019-05-29T04:17:39.815Z,8.80
2019-05-29T04:20:08.799Z,8.80
2019-05-29T04:22:43.287Z,8.70
2019-05-29T04:25:13.941Z,8.70
2019-05-29T04:27:43.182Z,8.70
2019-05-29T04:30:13.325Z,8.70
2019-05-29T04:32:42.299Z,8.70
2019-05-29T04:35:11.454Z,8.80
2019-05-29T04:37:40.509Z,8.90
2019-05-29T04:40:09.705Z,8.90
2019-05-29T04:42:40.164Z,9.00
2019-05-29T04:45:09.068Z,9.00
2019-05-29T04:47:39.338Z,9.00
2019-05-29T04:50:08.144Z,9.00
2019-05-29T04:52:37.864Z,9.20
2019-05-29T04:55:07.500Z,9.30
2019-05-29T04:57:37.103Z,9.30
2019-05-29T05:00:06.936Z,9.40
2019-05-29T05:02:35.559Z,9.50
2019-05-29T05:05:05.636Z,9.40
2019-05-29T05:07:35.282Z,9.40
2019-05-29T05:10:05.973Z,9.50
2019-05-29T05:12:35.699Z,9.60
2019-05-29T05:15:05.294Z,9.60
2019-05-29T05:17:36.062Z,9.50
2019-05-29T05:20:06.521Z,9.60
2019-05-29T05:22:36.302Z,9.60
2019-05-29T05:25:06.656Z,9.60
2019-05-29T05:27:36.336Z,9.60
2019-05-29T05:30:08.911Z,9.50
2019-05-29T05:32:37.021Z,9.50
2019-05-29T05:35:07.922Z,9.60
2019-05-29T05:37:36.971Z,9.70
2019-05-29T05:40:07.029Z,9.60
2019-05-29T05:42:36.745Z,9.70
2019-05-29T05:45:06.980Z,9.70
2019-05-29T05:47:50.016Z,9.70
2019-05-29T05:50:06.955Z,9.70
2019-05-29T05:52:35.503Z,9.70
2019-05-29T05:55:05.572Z,9.70
2019-05-29T05:57:35.488Z,9.70
2019-05-29T06:00:07.411Z,9.70
2019-05-29T06:02:36.119Z,9.70
2019-05-29T06:05:05.887Z,9.80
2019-05-29T06:07:34.449Z,9.80
2019-05-29T06:10:03.712Z,9.80
2019-05-29T06:12:32.323Z,9.90
2019-05-29T06:15:00.795Z,9.90
2019-05-29T06:17:29.344Z,9.80
2019-05-29T06:19:57.907Z,9.80
2019-05-29T06:22:26.534Z,9.80
2019-05-29T06:24:55.136Z,9.70
2019-05-29T06:27:23.716Z,9.70
2019-05-29T06:29:52.275Z,9.60
2019-05-29T06:32:20.807Z,9.70
2019-05-29T06:34:49.365Z,9.80
2019-05-29T06:37:17.898Z,9.80
2019-05-29T06:39:46.503Z,9.80
2019-05-29T06:42:15.199Z,9.80
2019-05-29T06:44:46.995Z,9.90
2019-05-29T06:47:14.021Z,9.90
2019-05-29T06:49:42.560Z,10.00
2019-05-29T06:52:11.140Z,10.10
2019-05-29T06:54:40.060Z,10.20
2019-05-29T06:57:08.637Z,10.30
2019-05-29T06:59:38.212Z,10.40
2019-05-29T07:02:06.921Z,10.40
2019-05-29T07:04:36.229Z,10.50
2019-05-29T07:07:04.946Z,10.60
2019-05-29T07:09:33.515Z,10.60
2019-05-29T07:12:02.055Z,10.70
2019-05-29T07:14:30.621Z,10.70
2019-05-29T07:16:59.180Z,10.80
2019-05-29T07:19:47.220Z,10.80
2019-05-29T07:21:57.923Z,10.70
2019-05-29T07:24:26.505Z,10.70
2019-05-29T07:26:55.095Z,10.70
2019-05-29T07:29:23.645Z,10.70
2019-05-29T07:31:52.275Z,10.80
2019-05-29T07:34:20.879Z,10.90
2019-05-29T07:36:49.448Z,10.90
2019-05-29T07:39:17.983Z,10.90
2019-05-29T07:41:47.712Z,10.90
2019-05-29T07:44:16.377Z,11.00
2019-05-29T07:46:45.695Z,11.00
2019-05-29T07:49:15.207Z,11.00
2019-05-29T07:51:45.085Z,11.00
2019-05-29T07:54:13.965Z,11.00
2019-05-29T07:56:42.535Z,11.10
2019-05-29T07:59:11.058Z,11.10
2019-05-29T08:01:40.639Z,11.10
2019-05-29T08:04:09.371Z,11.10
2019-05-29T08:06:38.890Z,11.10
2019-05-29T08:09:08.513Z,11.20
2019-05-29T08:11:37.102Z,11.30
2019-05-29T08:14:05.730Z,11.40
2019-05-29T08:16:34.640Z,11.60
2019-05-29T08:19:03.175Z,11.60
2019-05-29T08:21:31.735Z,11.60
2019-05-29T08:24:00.298Z,11.70
2019-05-29T08:26:28.870Z,11.70
2019-05-29T08:28:57.413Z,11.70
2019-05-29T08:31:25.976Z,11.60
2019-05-29T08:33:54.577Z,11.60
2019-05-29T08:36:23.144Z,11.70
2019-05-29T08:38:51.943Z,11.80
2019-05-29T08:41:20.790Z,11.90
2019-05-29T08:43:50.618Z,12.10
2019-05-29T08:46:19.434Z,12.10
2019-05-29T08:48:48.216Z,12.30
2019-05-29T08:51:16.827Z,12.40
2019-05-29T08:53:46.423Z,12.30
2019-05-29T08:56:15.174Z,12.30
2019-05-29T08:58:44.374Z,12.10
2019-05-29T09:01:13.074Z,12.10
2019-05-29T09:03:42.770Z,12.10
2019-05-29T09:06:13.574Z,12.20
2019-05-29T09:08:43.356Z,12.40
2019-05-29T09:11:11.867Z,12.60
2019-05-29T09:13:40.412Z,12.70
2019-05-29T09:16:09.107Z,12.80
2019-05-29T09:18:37.584Z,12.80
2019-05-29T09:21:06.166Z,12.90
2019-05-29T09:23:34.739Z,13.00
2019-05-29T09:26:13.947Z,12.90
2019-05-29T09:28:34.487Z,12.90
2019-05-29T09:31:03.051Z,12.90
2019-05-29T09:33:31.590Z,12.90
2019-05-29T09:36:00.565Z,12.90
2019-05-29T09:38:29.133Z,12.90
2019-05-29T09:40:57.735Z,13.00
2019-05-29T09:43:30.282Z,13.00
2019-05-29T09:45:56.483Z,13.10
2019-05-29T09:48:28.261Z,13.10
2019-05-29T09:50:55.470Z,13.20
2019-05-29T09:53:24.027Z,13.30
2019-05-29T09:55:54.222Z,13.30
2019-05-29T09:58:22.975Z,13.40
2019-05-29T10:01:09.762Z,13.50
2019-05-29T10:03:21.906Z,13.40
2019-05-29T10:05:50.436Z,13.40
2019-05-29T10:08:18.967Z,13.30
2019-05-29T10:10:47.605Z,13.30
2019-05-29T10:13:16.152Z,13.30
2019-05-29T10:15:44.947Z,13.30
2019-05-29T10:18:31.244Z,13.40
2019-05-29T10:20:43.922Z,13.50
2019-05-29T10:23:12.636Z,13.60
2019-05-29T10:25:41.252Z,13.60
2019-05-29T10:28:09.812Z,13.70
2019-05-29T10:30:38.420Z,13.80
2019-05-29T10:33:07.050Z,13.80
2019-05-29T10:35:35.661Z,13.90
2019-05-29T10:38:04.522Z,13.80
2019-05-29T10:40:33.234Z,13.80
2019-05-29T10:43:01.829Z,13.80
2019-05-29T10:45:30.388Z,13.80
2019-05-29T10:47:58.960Z,13.90
2019-05-29T10:50:27.593Z,13.90
2019-05-29T10:52:56.126Z,14.00
2019-05-29T10:55:24.919Z,14.00
2019-05-29T10:57:54.993Z,14.10
2019-05-29T11:00:24.113Z,14.10
2019-05-29T11:02:55.162Z,14.20
2019-05-29T11:05:23.160Z,14.20
2019-05-29T11:07:52.005Z,14.30
2019-05-29T11:10:20.884Z,14.40
2019-05-29T11:12:50.655Z,14.50
2019-05-29T11:15:22.014Z,14.40
2019-05-29T11:17:51.403Z,14.30
2019-05-29T11:20:21.092Z,14.20
2019-05-29T11:22:49.661Z,14.20
2019-05-29T11:25:23.645Z,14.10
2019-05-29T11:27:50.269Z,13.90
2019-05-29T11:30:19.084Z,13.80
2019-05-29T11:32:50.046Z,13.70
2019-05-29T11:35:17.964Z,13.70
2019-05-29T11:37:46.588Z,13.80
2019-05-29T11:40:15.860Z,13.80
2019-05-29T11:42:44.424Z,13.80
2019-05-29T11:45:13.419Z,14.00
2019-05-29T11:47:42.021Z,14.00
2019-05-29T11:50:19.043Z,14.10
2019-05-29T11:52:43.224Z,14.20
2019-05-29T11:55:12.457Z,14.30
2019-05-29T11:57:41.056Z,14.30
2019-05-29T12:00:19.422Z,14.30
2019-05-29T12:02:42.680Z,14.30
2019-05-29T12:05:11.676Z,14.20
2019-05-29T12:07:40.287Z,14.00
2019-05-29T12:10:09.322Z,13.90
2019-05-29T12:12:38.175Z,13.50
2019-05-29T12:15:13.456Z,12.90
2019-05-29T12:17:38.366Z,12.20
2019-05-29T12:20:26.450Z,11.80
2019-05-29T12:22:38.195Z,11.60
2019-05-29T12:25:07.166Z,11.50
2019-05-29T12:27:35.757Z,11.40
2019-05-29T12:30:06.699Z,11.30
2019-05-29T12:32:35.405Z,11.30
2019-05-29T12:35:06.439Z,11.40
2019-05-29T12:37:35.071Z,11.60
2019-05-29T12:40:08.138Z,11.80
2019-05-29T12:42:36.832Z,11.90
2019-05-29T12:45:07.934Z,12.00
2019-05-29T12:47:36.641Z,12.10
2019-05-29T12:50:12.560Z,12.20
2019-05-29T12:52:41.959Z,12.20
2019-05-29T12:55:12.144Z,12.30
2019-05-29T12:57:40.832Z,12.40
2019-05-29T13:00:17.764Z,12.30
2019-05-29T13:02:46.448Z,12.30
2019-05-29T13:05:20.166Z,12.30
2019-05-29T13:07:46.095Z,12.30
2019-05-29T13:10:29.474Z,12.20
2019-05-29T13:12:46.179Z,12.20
2019-05-29T13:15:15.652Z,12.00
2019-05-29T13:17:44.351Z,12.00
2019-05-29T13:20:21.100Z,12.00
2019-05-29T13:22:43.989Z,11.90
2019-05-29T13:25:13.458Z,11.80
2019-05-29T13:27:42.085Z,11.70
2019-05-29T13:30:12.931Z,11.60
2019-05-29T13:32:41.995Z,11.70
2019-05-29T13:35:12.716Z,11.70
2019-05-29T13:37:41.274Z,11.70
2019-05-29T13:40:10.451Z,11.70
2019-05-29T13:42:39.070Z,11.70
2019-05-29T13:45:17.806Z,11.70
2019-05-29T13:47:39.048Z,11.70
2019-05-29T13:50:12.117Z,11.60
2019-05-29T13:52:38.527Z,11.50
2019-05-29T13:55:07.754Z,11.30
2019-05-29T13:57:39.518Z,11.30
2019-05-29T14:00:33.720Z,11.30
2019-05-29T14:02:44.216Z,11.40
2019-05-29T14:05:14.556Z,11.40
2019-05-29T14:07:43.548Z,11.40
2019-05-29T14:10:12.745Z,11.40
2019-05-29T14:12:41.310Z,11.50
2019-05-29T14:15:10.775Z,11.50
2019-05-29T14:17:39.412Z,11.50
2019-05-29T14:20:08.943Z,11.50
2019-05-29T14:22:37.641Z,11.40
2019-05-29T14:25:07.520Z,11.50
2019-05-29T14:27:36.221Z,11.50
2019-05-29T14:30:08.514Z,11.60
2019-05-29T14:32:38.032Z,11.60
2019-05-29T14:35:09.483Z,11.60
2019-05-29T14:37:38.721Z,11.60
2019-05-29T14:40:08.094Z,11.60
2019-05-29T14:42:36.787Z,11.60
2019-05-29T14:45:08.138Z,11.70
2019-05-29T14:47:36.917Z,11.70
2019-05-29T14:50:06.611Z,11.60
2019-05-29T14:52:35.164Z,11.70
2019-05-29T14:55:04.571Z,11.70
2019-05-29T14:57:33.263Z,11.60
2019-05-29T15:00:06.757Z,11.60
2019-05-29T15:02:32.241Z,11.60
2019-05-29T15:05:00.813Z,11.50
2019-05-29T15:07:29.357Z,11.30
2019-05-29T15:09:57.997Z,11.20
2019-05-29T15:12:26.540Z,11.00
2019-05-29T15:14:55.104Z,11.00
2019-05-29T15:17:23.640Z,11.00
2019-05-29T15:19:52.202Z,11.00
2019-05-29T15:22:20.681Z,11.10
2019-05-29T15:25:01.567Z,11.10
2019-05-29T15:27:19.489Z,11.10
2019-05-29T15:29:48.047Z,11.20
2019-05-29T15:32:16.767Z,11.20
2019-05-29T15:34:45.392Z,11.20
2019-05-29T15:37:16.848Z,11.30
2019-05-29T15:39:44.067Z,11.30
2019-05-29T15:42:12.902Z,11.30
2019-05-29T15:44:41.686Z,11.40
2019-05-29T15:47:10.913Z,11.40
2019-05-29T15:49:39.623Z,11.40
2019-05-29T15:52:08.976Z,11.30
2019-05-29T15:54:37.743Z,11.20
2019-05-29T15:57:06.936Z,11.20
2019-05-29T15:59:35.628Z,11.30
2019-05-29T16:02:04.502Z,11.30
2019-05-29T16:04:33.143Z,11.40
2019-05-29T16:07:01.677Z,11.40
2019-05-29T16:09:30.309Z,11.40
2019-05-29T16:11:58.925Z,11.50
2019-05-29T16:14:27.475Z,11.40
2019-05-29T16:16:56.011Z,11.30
2019-05-29T16:19:24.571Z,11.30
2019-05-29T16:21:53.198Z,11.30
2019-05-29T16:24:22.770Z,11.30
2019-05-29T16:26:51.504Z,11.40
2019-05-29T16:29:20.054Z,11.40
2019-05-29T16:31:48.600Z,11.40
2019-05-29T16:34:18.926Z,11.40
2019-05-29T16:36:47.458Z,11.40
2019-05-29T16:39:16.023Z,11.40
2019-05-29T16:41:44.620Z,11.40
2019-05-29T16:44:14.082Z,11.30
2019-05-29T16:46:42.765Z,11.30
2019-05-29T16:49:12.447Z,11.30
2019-05-29T16:51:42.093Z,11.20
2019-05-29T16:54:10.827Z,11.10
2019-05-29T16:56:39.452Z,11.00
2019-05-29T16:59:08.014Z,11.00
2019-05-29T17:01:36.538Z,11.00
2019-05-29T17:04:05.242Z,11.00
2019-05-29T17:06:33.852Z,11.00
2019-05-29T17:09:02.900Z,10.90
2019-05-29T17:11:31.544Z,10.80
2019-05-29T17:14:00.099Z,10.80
2019-05-29T17:16:28.704Z,10.80
2019-05-29T17:18:57.708Z,10.80
2019-05-29T17:21:26.322Z,10.70
2019-05-29T17:23:54.958Z,10.70
2019-05-29T17:26:24.944Z,10.60
2019-05-29T17:28:53.802Z,10.50
2019-05-29T17:31:22.958Z,10.40
2019-05-29T17:33:51.591Z,10.40
2019-05-29T17:36:21.081Z,10.40
2019-05-29T17:38:49.723Z,10.40
2019-05-29T17:41:19.257Z,10.30
2019-05-29T17:43:47.882Z,10.30
2019-05-29T17:46:17.477Z,10.20
2019-05-29T17:48:46.120Z,10.10
2019-05-29T17:51:15.365Z,10.10
2019-05-29T17:53:44.045Z,10.10
2019-05-29T17:56:25.247Z,10.00
2019-05-29T17:58:42.784Z,10.00
2019-05-29T18:01:11.481Z,10.00
2019-05-29T18:03:40.070Z,9.90
2019-05-29T18:06:08.697Z,9.90
2019-05-29T18:08:37.227Z,9.90
2019-05-29T18:11:05.868Z,10.00
2019-05-29T18:13:34.475Z,10.10
2019-05-29T18:16:03.039Z,10.10
2019-05-29T18:18:31.659Z,10.20
2019-05-29T18:21:00.292Z,10.10
2019-05-29T18:23:28.972Z,10.20
2019-05-29T18:25:57.544Z,10.20
2019-05-29T18:28:26.162Z,10.20
2019-05-29T18:30:54.821Z,10.10
2019-05-29T18:33:23.633Z,9.80
2019-05-29T18:35:53.492Z,9.70
2019-05-29T18:38:22.358Z,9.60
2019-05-29T18:40:51.143Z,9.60
2019-05-29T18:43:20.364Z,9.50
2019-05-29T18:45:49.072Z,9.50
2019-05-29T18:48:17.629Z,9.70
2019-05-29T18:50:46.176Z,9.90
2019-05-29T18:53:14.717Z,9.80
2019-05-29T18:55:43.272Z,9.80
2019-05-29T18:58:11.877Z,9.70
2019-05-29T19:00:40.427Z,9.70
2019-05-29T19:03:08.959Z,9.60
2019-05-29T19:05:37.524Z,9.60
2019-05-29T19:08:06.140Z,9.50
2019-05-29T19:10:34.832Z,9.50
2019-05-29T19:13:03.439Z,9.40
2019-05-29T19:15:32.144Z,9.50
2019-05-29T19:18:01.289Z,9.60
2019-05-29T19:20:30.793Z,9.70
2019-05-29T19:22:59.665Z,9.80
2019-05-29T19:25:29.023Z,9.60
2019-05-29T19:27:58.306Z,9.50
2019-05-29T19:30:27.062Z,9.30
2019-05-29T19:32:55.935Z,9.30
2019-05-29T19:35:25.436Z,9.20
2019-05-29T19:37:53.991Z,9.20
2019-05-29T19:40:23.923Z,9.30
2019-05-29T19:42:54.781Z,9.30
2019-05-29T19:45:24.419Z,9.30
2019-05-29T19:47:53.371Z,9.30
2019-05-29T19:50:22.046Z,9.30
2019-05-29T19:52:50.808Z,9.40
2019-05-29T19:55:19.351Z,9.60
2019-05-29T19:57:55.489Z,9.50
2019-05-29T20:00:18.533Z,9.50
2019-05-29T20:02:47.131Z,9.50
2019-05-29T20:05:15.764Z,9.40
2019-05-29T20:07:44.299Z,9.30
2019-05-29T20:10:12.924Z,9.30
2019-05-29T20:12:41.443Z,9.30
2019-05-29T20:15:10.246Z,9.30
2019-05-29T20:17:38.847Z,9.40
2019-05-29T20:20:08.151Z,9.50
2019-05-29T20:22:37.087Z,9.50
2019-05-29T20:25:08.160Z,9.50
2019-05-29T20:27:38.503Z,9.60
2019-05-29T20:30:10.480Z,9.60
2019-05-29T20:32:39.112Z,9.60
2019-05-29T20:35:08.205Z,9.60
2019-05-29T20:37:36.755Z,9.50
2019-05-29T20:40:08.469Z,9.50
2019-05-29T20:42:38.326Z,9.50
2019-05-29T20:45:10.050Z,9.50
2019-05-29T20:47:39.824Z,9.60
2019-05-29T20:50:10.332Z,9.40
2019-05-29T20:52:39.461Z,9.40
2019-05-29T20:55:09.645Z,9.40
2019-05-29T20:57:38.209Z,9.50
2019-05-29T21:00:12.939Z,9.50
2019-05-29T21:02:42.475Z,9.50
2019-05-29T21:05:11.812Z,9.50
2019-05-29T21:07:40.953Z,9.50
2019-05-29T21:10:10.335Z,9.60
2019-05-29T21:12:44.276Z,9.50
2019-05-29T21:15:09.213Z,9.50
2019-05-29T21:17:37.921Z,9.40
2019-05-29T21:20:08.042Z,9.30
2019-05-29T21:22:36.591Z,9.40
2019-05-29T21:25:12.480Z,9.30
2019-05-29T21:27:43.228Z,9.20
2019-05-29T21:30:11.155Z,9.10
2019-05-29T21:32:40.279Z,9.00
2019-05-29T21:35:08.951Z,9.10
2019-05-29T21:37:38.238Z,9.00
2019-05-29T21:40:07.781Z,9.00
2019-05-29T21:42:36.600Z,9.00
2019-05-29T21:45:06.452Z,8.90
2019-05-29T21:47:35.155Z,8.90
2019-05-29T21:50:05.995Z,8.90
2019-05-29T21:52:34.594Z,8.90
2019-05-29T21:55:03.596Z,9.00
2019-05-29T21:57:32.135Z,9.00
2019-05-29T22:00:00.696Z,9.00
2019-05-29T22:02:29.230Z,9.00
2019-05-29T22:04:57.862Z,8.90
2019-05-29T22:07:26.396Z,8.90
2019-05-29T22:09:55.021Z,8.90
2019-05-29T22:12:24.753Z,8.80
2019-05-29T22:14:53.406Z,8.80
2019-05-29T22:17:24.839Z,8.90
2019-05-29T22:19:53.306Z,8.90
2019-05-29T22:22:21.897Z,9.00
2019-05-29T22:24:51.102Z,9.10
2019-05-29T22:27:19.711Z,9.10
2019-05-29T22:29:48.319Z,9.10
2019-05-29T22:32:16.871Z,9.20
2019-05-29T22:34:45.497Z,9.30
2019-05-29T22:37:14.191Z,9.30
2019-05-29T22:39:42.801Z,9.20
2019-05-29T22:42:11.339Z,9.20
2019-05-29T22:44:39.904Z,9.20
2019-05-29T22:47:08.816Z,9.20
2019-05-29T22:49:37.365Z,9.20
2019-05-29T22:52:05.979Z,9.30
2019-05-29T22:54:34.539Z,9.30
2019-05-29T22:57:03.227Z,9.30
2019-05-29T22:59:32.515Z,9.30
2019-05-29T23:02:02.458Z,9.30
2019-05-29T23:04:31.155Z,9.30
2019-05-29T23:07:00.428Z,9.40
2019-05-29T23:09:29.018Z,9.40
2019-05-29T23:11:58.306Z,9.40
2019-05-29T23:14:27.009Z,9.50
2019-05-29T23:16:56.438Z,9.50
2019-05-29T23:19:25.005Z,9.50
2019-05-29T23:21:54.405Z,9.50
2019-05-29T23:24:23.013Z,9.40
2019-05-29T23:26:52.835Z,9.40
2019-05-29T23:29:21.473Z,9.30
2019-05-29T23:31:50.028Z,9.40
2019-05-29T23:34:18.627Z,9.40
2019-05-29T23:36:47.230Z,9.40
2019-05-29T23:39:16.346Z,9.30
2019-05-29T23:41:44.910Z,9.30
2019-05-29T23:44:13.471Z,9.30
2019-05-29T23:46:42.004Z,9.30
2019-05-29T23:49:10.565Z,9.30
2019-05-29T23:51:39.099Z,9.30
2019-05-29T23:54:07.743Z,9.30
2019-05-29T23:56:36.336Z,9.30
2019-05-29T23:59:05.013Z,9.30
